Time;durP1;ratioP1;P1;durP2;ratioP2;P2;SDS_P1;SDS_P2;PMS_P1;PMS_P2;Temp;Humidity;BMP_temperature;BMP_pressure;BME280_temperature;BME280_humidity;BME280_pressure;Samples;Min_cycle;Max_cycle;Signal;HPM_P1;HPM_P2
2023/07/07 00:00:43;;;;;;;;;4.67;4.33;;;;;20.24;42.80;101342.47;4903263;29;44841;-96
2023/07/07 00:03:09;;;;;;;;;4.67;4.00;;;;;20.16;42.50;101337.69;4893947;29;47249;-95
2023/07/07 00:05:35;;;;;;;;;5.33;5.33;;;;;20.22;42.46;101343.53;4896032;29;44970;-96
2023/07/07 00:08:00;;;;;;;;;5.67;5.67;;;;;20.17;42.87;101333.25;4896829;29;45408;-96
2023/07/07 00:10:26;;;;;;;;;6.33;5.00;;;;;20.19;42.83;101341.06;4900294;29;45446;-96
2023/07/07 00:12:51;;;;;;;;;6.00;6.00;;;;;20.16;42.84;101342.97;4875674;29;47223;-96
2023/07/07 00:15:17;;;;;;;;;4.00;4.00;;;;;20.09;42.71;101333.75;4885550;29;45474;-96
2023/07/07 00:17:42;;;;;;;;;6.33;6.33;;;;;20.05;42.82;101329.66;4888188;29;45405;-96
2023/07/07 00:20:12;;;;;;;;;4.33;3.67;;;;;20.04;42.88;101327.94;4888707;29;45104;-96
2023/07/07 00:22:38;;;;;;;;;4.67;4.67;;;;;20.05;42.72;101336.72;4888887;29;47161;-96
2023/07/07 00:25:05;;;;;;;;;5.00;5.00;;;;;20.09;43.24;101354.06;4888068;29;45254;-96
2023/07/07 00:27:31;;;;;;;;;5.00;5.00;;;;;20.05;42.74;101357.84;4898610;28;45423;-96
2023/07/07 00:29:56;;;;;;;;;4.00;3.00;;;;;19.93;43.00;101344.47;4908752;29;44817;-96
2023/07/07 00:32:22;;;;;;;;;5.67;5.67;;;;;19.96;43.19;101359.28;4910311;29;47055;-96
2023/07/07 00:34:48;;;;;;;;;5.50;5.50;;;;;19.92;43.12;101349.84;4913640;29;45125;-96
2023/07/07 00:37:13;;;;;;;;;8.00;6.00;;;;;19.86;43.35;101344.03;4902644;29;44869;-96
2023/07/07 00:39:39;;;;;;;;;6.00;5.00;;;;;19.82;43.46;101341.69;4898418;29;45318;-95
2023/07/07 00:42:05;;;;;;;;;5.00;5.00;;;;;19.81;43.46;101345.28;4900182;29;47347;-96
2023/07/07 00:45:05;;;;;;;;;8.25;6.50;;;;;19.84;43.37;101345.94;4898505;29;45358;-96
2023/07/07 00:47:32;;;;;;;;;5.33;5.33;;;;;19.72;43.69;101326.44;4898614;29;45367;-95
2023/07/07 00:49:58;;;;;;;;;6.00;4.00;;;;;19.77;43.41;101339.38;4898051;29;45436;-96
2023/07/07 00:52:23;;;;;;;;;5.00;5.00;;;;;19.66;43.95;101333.94;4894463;28;47282;-95
2023/07/07 00:54:49;;;;;;;;;4.00;4.00;;;;;19.66;43.82;101328.66;4894435;29;45384;-96
2023/07/07 00:57:15;;;;;;;;;4.00;4.00;;;;;19.68;44.16;101337.31;4900185;29;45290;-96
2023/07/07 00:59:43;;;;;;;;;10.50;7.25;;;;;19.63;43.80;101333.19;4913188;29;45371;-96
2023/07/07 01:02:14;;;;;;;;;6.50;5.00;;;;;19.58;44.16;101316.78;4926395;28;47045;-96
2023/07/07 01:04:43;;;;;;;;;5.25;5.25;;;;;19.56;43.48;101315.19;4911239;29;45333;-95
2023/07/07 01:07:16;;;;;;;;;5.00;5.00;;;;;19.61;43.99;101327.16;4911066;29;45292;-96
2023/07/07 01:09:41;;;;;;;;;3.33;3.33;;;;;19.58;43.62;101319.44;4908647;29;44941;-96
2023/07/07 01:12:14;;;;;;;;;7.00;6.00;;;;;19.57;43.42;101324.81;4906253;29;47220;-96
2023/07/07 01:14:45;;;;;;;;;5.67;5.00;;;;;19.53;43.30;101318.88;4906117;29;45371;-96
2023/07/07 01:17:55;;;;;;;;;5.00;4.67;;;;;19.57;43.38;101315.09;4905950;29;45083;-96
2023/07/07 01:20:37;;;;;;;;;4.33;4.00;;;;;19.57;43.19;101319.53;4906660;29;45286;-96
2023/07/07 01:23:34;;;;;;;;;6.67;5.00;;;;;19.56;43.31;101313.41;4905741;29;47952;-96
2023/07/07 01:26:19;;;;;;;;;3.00;3.00;;;;;19.56;43.30;101321.34;4904694;29;44724;-96
2023/07/07 01:29:22;;;;;;;;;5.33;5.33;;;;;19.56;43.02;101317.84;4892934;29;45291;-96
2023/07/07 01:32:00;;;;;;;;;6.00;5.67;;;;;19.55;43.66;101318.78;4887474;29;44897;-96
2023/07/07 01:34:26;;;;;;;;;5.00;5.00;;;;;19.51;43.04;101318.16;4884420;29;48750;-95
2023/07/07 01:36:52;;;;;;;;;8.00;5.33;;;;;19.52;43.25;101317.19;4884935;29;45038;-96
2023/07/07 01:39:17;;;;;;;;;6.00;6.00;;;;;19.47;43.03;101306.94;4885802;29;45439;-96
2023/07/07 01:41:48;;;;;;;;;5.00;4.00;;;;;19.53;43.31;101318.06;4886810;29;45870;-96
2023/07/07 01:44:29;;;;;;;;;4.25;4.00;;;;;19.51;43.23;101315.50;4887594;29;47332;-96
2023/07/07 01:47:11;;;;;;;;;5.00;5.00;;;;;19.50;43.26;101324.38;4900803;29;45351;-96
2023/07/07 01:49:59;;;;;;;;;5.67;4.67;;;;;19.40;43.18;101310.94;4902660;29;45370;-96
2023/07/07 01:52:39;;;;;;;;;4.67;4.67;;;;;19.44;43.47;101322.97;4902674;29;45545;-96
2023/07/07 01:55:28;;;;;;;;;6.00;5.25;;;;;19.41;43.47;101320.53;4902191;29;47159;-96
2023/07/07 01:57:58;;;;;;;;;4.67;4.00;;;;;19.34;43.19;101309.53;4883281;29;45058;-96
2023/07/07 02:00:26;;;;;;;;;5.00;5.00;;;;;19.31;43.63;101312.34;4884423;29;45217;-96
2023/07/07 02:02:53;;;;;;;;;5.00;4.00;;;;;19.34;44.15;101316.59;4887191;29;45581;-96
2023/07/07 02:05:18;;;;;;;;;6.67;4.67;;;;;19.30;43.80;101302.75;4887027;29;47646;-96
2023/07/07 02:07:44;;;;;;;;;6.67;6.00;;;;;19.22;44.13;101305.88;4885068;29;46097;-96
2023/07/07 02:10:10;;;;;;;;;5.00;5.00;;;;;19.16;44.08;101301.00;4883759;29;45359;-96
2023/07/07 02:12:36;;;;;;;;;4.67;4.67;;;;;19.16;43.81;101303.63;4883920;29;45402;-96
2023/07/07 02:15:01;;;;;;;;;9.33;6.00;;;;;19.17;43.97;101307.13;4882788;29;47575;-95
2023/07/07 02:17:28;;;;;;;;;4.67;4.67;;;;;19.17;44.37;101304.50;4882756;29;45067;-96
2023/07/07 02:19:55;;;;;;;;;5.50;5.25;;;;;19.13;44.29;101310.88;4883132;29;45369;-96
2023/07/07 02:22:20;;;;;;;;;6.33;5.33;;;;;19.04;44.55;101299.13;4882960;29;45308;-96
2023/07/07 02:24:46;;;;;;;;;6.00;6.00;;;;;18.98;44.47;101294.22;4882382;29;47557;-96
2023/07/07 02:27:11;;;;;;;;;7.00;6.00;;;;;19.00;44.94;101298.44;4882592;29;44788;-95
2023/07/07 02:29:37;;;;;;;;;4.67;4.67;;;;;19.00;45.03;101302.88;4882689;29;45589;-96
2023/07/07 02:32:04;;;;;;;;;7.25;5.25;;;;;18.94;45.29;101286.47;4882869;29;44873;-96
2023/07/07 02:34:29;;;;;;;;;7.00;6.25;;;;;18.92;45.49;101290.16;4882572;29;48708;-96
2023/07/07 02:36:54;;;;;;;;;6.25;6.00;;;;;18.90;45.21;101294.69;4882738;29;44914;-96
2023/07/07 02:39:20;;;;;;;;;8.25;7.25;;;;;18.88;44.88;101280.78;4883166;29;45406;-96
2023/07/07 02:41:46;;;;;;;;;9.75;6.75;;;;;18.90;45.45;101305.25;4899438;29;45319;-96
2023/07/07 02:44:12;;;;;;;;;9.00;8.00;;;;;18.90;45.30;101303.47;4901200;29;46989;-96
2023/07/07 02:46:37;;;;;;;;;4.00;3.75;;;;;18.82;45.28;101290.75;4905582;29;45466;-95
2023/07/07 02:49:03;;;;;;;;;6.67;5.00;;;;;18.88;45.54;101299.22;4901401;29;44823;-96
2023/07/07 02:51:28;;;;;;;;;3.67;3.67;;;;;18.80;45.25;101289.16;4898718;29;45311;-96
2023/07/07 02:53:55;;;;;;;;;5.67;5.67;;;;;18.76;45.73;101287.66;4882159;29;47192;-96
2023/07/07 02:56:20;;;;;;;;;6.33;6.33;;;;;18.73;45.50;101290.47;4898575;29;45308;-96
2023/07/07 02:58:46;;;;;;;;;5.00;5.00;;;;;18.77;45.66;101299.88;4901271;29;45252;-96
2023/07/07 03:01:17;;;;;;;;;8.00;6.67;;;;;18.75;45.78;101305.25;4899955;29;45356;-96
2023/07/07 03:03:45;;;;;;;;;6.25;5.00;;;;;18.69;45.78;101295.06;4900592;29;46949;-96
2023/07/07 03:06:15;;;;;;;;;4.25;4.25;;;;;18.72;45.86;101309.84;4901192;29;45317;-96
2023/07/07 03:08:41;;;;;;;;;8.33;6.00;;;;;18.64;46.27;101294.50;4900770;29;45451;-96
2023/07/07 03:11:09;;;;;;;;;6.00;5.00;;;;;18.64;46.40;101303.28;4883991;29;45288;-95
2023/07/07 03:13:36;;;;;;;;;7.00;7.00;;;;;18.60;46.61;101298.28;4882102;29;47383;-96
2023/07/07 03:16:13;;;;;;;;;6.00;6.00;;;;;18.58;46.58;101293.13;4881539;29;44963;-96
2023/07/07 03:18:40;;;;;;;;;8.25;5.00;;;;;18.61;47.01;101307.91;4883604;29;45583;-96
2023/07/07 03:21:06;;;;;;;;;5.75;4.25;;;;;18.48;46.81;101282.28;4883799;29;45344;-96
2023/07/07 03:23:32;;;;;;;;;7.50;6.75;;;;;18.45;46.98;101284.25;4884868;29;47356;-96
2023/07/07 03:26:06;;;;;;;;;5.00;5.00;;;;;18.49;47.02;101294.53;4889137;29;45558;-96
2023/07/07 03:28:31;;;;;;;;;7.67;5.00;;;;;18.45;47.22;101292.16;4884053;29;45508;-96
2023/07/07 03:30:57;;;;;;;;;4.33;4.33;;;;;18.49;46.91;101296.31;4882170;29;45340;-96
2023/07/07 03:33:22;;;;;;;;;6.33;5.33;;;;;18.41;47.24;101292.34;4881459;29;47449;-96
2023/07/07 03:35:50;;;;;;;;;5.00;3.67;;;;;18.36;46.96;101296.19;4881624;29;45414;-96
2023/07/07 03:38:16;;;;;;;;;8.00;3.67;;;;;18.39;47.03;101296.03;4882036;29;44756;-96
2023/07/07 03:40:48;;;;;;;;;6.67;6.67;;;;;18.33;47.00;101297.22;4899018;28;45285;-95
2023/07/07 03:43:13;;;;;;;;;6.00;6.00;;;;;18.32;46.95;101292.91;4900743;29;47557;-96
2023/07/07 03:45:40;;;;;;;;;6.75;3.75;;;;;18.32;47.14;101292.06;4900461;29;45308;-96
2023/07/07 03:48:05;;;;;;;;;6.00;5.00;;;;;18.34;46.92;101293.69;4916742;28;45403;-96
2023/07/07 03:50:31;;;;;;;;;6.00;5.67;;;;;18.40;46.84;101305.63;4901122;29;45251;-96
2023/07/07 03:52:56;;;;;;;;;4.75;4.75;;;;;18.43;46.57;101303.63;4900349;29;47509;-95
2023/07/07 03:55:21;;;;;;;;;4.25;4.25;;;;;18.39;46.67;101296.03;4900579;28;45258;-96
2023/07/07 03:57:47;;;;;;;;;4.00;4.00;;;;;18.39;46.70;101290.75;4905477;29;45799;-95
2023/07/07 04:00:13;;;;;;;;;6.33;4.67;;;;;18.45;46.16;101300.91;4903219;29;45487;-96
2023/07/07 04:02:38;;;;;;;;;6.00;4.00;;;;;18.45;46.15;101310.59;4904766;29;47604;-96
2023/07/07 04:05:04;;;;;;;;;4.67;3.67;;;;;18.45;46.32;101308.81;4909978;29;45359;-96
2023/07/07 04:07:29;;;;;;;;;4.50;4.50;;;;;18.40;46.50;101297.72;4906271;29;45455;-96
2023/07/07 04:09:54;;;;;;;;;6.00;6.00;;;;;18.37;46.68;101301.38;4902975;29;45482;-96
2023/07/07 04:12:20;;;;;;;;;7.00;4.00;;;;;18.43;46.40;101308.91;4903409;29;48442;-95
2023/07/07 04:14:45;;;;;;;;;6.50;6.50;;;;;18.38;47.02;101296.97;4919573;28;45401;-96
2023/07/07 04:17:17;;;;;;;;;4.00;4.00;;;;;18.41;46.73;101309.94;4903986;29;45057;-96
2023/07/07 04:19:42;;;;;;;;;7.00;6.00;;;;;18.38;46.81;101303.06;4903604;29;45361;-95
2023/07/07 04:22:08;;;;;;;;;4.00;4.00;;;;;18.32;47.08;101303.44;4903269;29;47237;-95
2023/07/07 04:24:33;;;;;;;;;6.00;5.00;;;;;18.40;46.80;101310.88;4902706;29;45483;-96
2023/07/07 04:26:59;;;;;;;;;7.25;6.75;;;;;18.36;46.94;101309.38;4903888;29;45421;-96
2023/07/07 04:29:24;;;;;;;;;6.50;5.25;;;;;18.36;47.01;101307.59;4903501;29;44961;-95
2023/07/07 04:31:50;;;;;;;;;7.00;5.00;;;;;18.39;46.76;101315.31;4903445;29;47110;-96
2023/07/07 04:34:16;;;;;;;;;5.50;4.00;;;;;18.36;46.59;101312.84;4919122;28;44894;-96
2023/07/07 04:36:42;;;;;;;;;5.00;5.00;;;;;18.40;46.17;101318.78;4904609;29;45446;-95
2023/07/07 04:39:07;;;;;;;;;6.00;4.67;;;;;18.33;46.75;101310.41;4904853;29;45447;-96
2023/07/07 04:41:33;;;;;;;;;4.00;4.00;;;;;18.38;46.30;101312.78;4906470;29;47189;-96
2023/07/07 04:44:00;;;;;;;;;4.50;3.75;;;;;18.41;46.37;101321.34;4910763;29;45303;-96
2023/07/07 04:46:35;;;;;;;;;3.00;1.50;;;;;18.40;46.83;101322.28;4905661;29;45228;-96
2023/07/07 04:49:08;;;;;;;;;5.75;5.75;;;;;18.33;46.56;101301.66;4903401;29;45380;-96
2023/07/07 04:51:38;;;;;;;;;7.00;5.00;;;;;18.34;47.02;101298.94;4902808;29;47411;-96
2023/07/07 04:54:05;;;;;;;;;4.00;4.00;;;;;18.42;46.74;101314.25;4887334;29;45977;-96
2023/07/07 04:56:33;;;;;;;;;4.00;4.00;;;;;18.40;46.93;101306.47;4884072;29;45422;-96
2023/07/07 04:58:58;;;;;;;;;7.00;6.25;;;;;18.39;46.72;101307.41;4884414;29;45414;-96
2023/07/07 05:01:27;;;;;;;;;6.50;5.25;;;;;18.48;47.08;101321.81;4884227;29;46921;-96
2023/07/07 05:03:55;;;;;;;;;4.50;4.00;;;;;18.49;46.89;101320.88;4883962;29;46334;-96
2023/07/07 05:06:22;;;;;;;;;6.50;6.00;;;;;18.50;47.04;101322.56;4883822;29;44822;-96
2023/07/07 05:08:48;;;;;;;;;4.50;4.25;;;;;18.51;47.02;101319.00;4884067;29;45344;-96
2023/07/07 05:11:17;;;;;;;;;5.00;5.00;;;;;18.59;47.26;101320.28;4898045;29;48001;-95
2023/07/07 05:13:44;;;;;;;;;6.50;3.75;;;;;18.61;47.63;101314.00;4902927;29;45289;-96
2023/07/07 05:16:12;;;;;;;;;4.25;4.25;;;;;18.63;47.98;101321.81;4904050;29;45402;-95
2023/07/07 05:18:37;;;;;;;;;6.33;5.00;;;;;18.61;47.68;101314.00;4904567;29;45434;-96
2023/07/07 05:21:04;;;;;;;;;5.75;5.00;;;;;18.67;47.66;101316.28;4907261;29;46968;-96
2023/07/07 05:23:30;;;;;;;;;4.25;4.25;;;;;18.72;47.88;101318.63;4910029;29;45101;-96
2023/07/07 05:25:56;;;;;;;;;5.50;5.00;;;;;18.78;47.83;101331.44;4902149;29;45450;-95
2023/07/07 05:28:21;;;;;;;;;4.50;4.50;;;;;18.80;47.46;101337.44;4902691;29;45658;-96
2023/07/07 05:30:47;;;;;;;;;5.00;5.00;;;;;18.85;47.80;101331.91;4902494;29;47195;-96
2023/07/07 05:33:13;;;;;;;;;5.00;5.00;;;;;18.88;47.75;101336.16;4902479;29;45292;-96
2023/07/07 05:35:54;;;;;;;;;6.75;5.25;;;;;18.91;47.62;101347.34;4902611;29;45464;-96
2023/07/07 05:38:22;;;;;;;;;6.00;4.25;;;;;18.93;47.53;101334.91;4902631;29;45564;-96
2023/07/07 05:40:48;;;;;;;;;5.00;5.00;;;;;18.89;47.22;101322.84;4901512;29;47260;-96
2023/07/07 05:43:15;;;;;;;;;5.25;4.75;;;;;18.96;47.74;101331.22;4918077;28;45418;-96
2023/07/07 05:45:42;;;;;;;;;5.00;5.00;;;;;19.03;47.88;101337.84;4902221;29;44835;-95
2023/07/07 05:48:08;;;;;;;;;7.00;5.00;;;;;19.05;47.60;101333.34;4902523;29;45482;-95
2023/07/07 05:50:34;;;;;;;;;10.33;6.67;;;;;19.09;47.66;101337.47;4902503;29;47201;-95
2023/07/07 05:53:01;;;;;;;;;5.00;5.00;;;;;19.17;47.26;101331.69;4902400;29;45313;-96
2023/07/07 05:55:32;;;;;;;;;5.25;4.75;;;;;19.18;47.49;101327.28;4904577;29;45340;-95
2023/07/07 05:57:58;;;;;;;;;5.00;5.00;;;;;19.18;47.07;101322.00;4921030;28;45279;-95
2023/07/07 06:00:25;;;;;;;;;6.00;6.00;;;;;19.25;47.31;101325.94;4907315;29;47306;-96
2023/07/07 06:02:51;;;;;;;;;7.25;5.75;;;;;19.31;47.40;101328.19;4908985;29;45316;-96
2023/07/07 06:05:17;;;;;;;;;4.33;4.00;;;;;19.36;47.50;101323.44;4902407;29;45332;-96
2023/07/07 06:07:42;;;;;;;;;6.33;6.00;;;;;19.47;47.23;101332.47;4902001;29;45373;-96
2023/07/07 06:10:10;;;;;;;;;8.00;5.00;;;;;19.43;47.23;101312.50;4900658;29;46727;-96
2023/07/07 06:12:36;;;;;;;;;2.67;1.33;;;;;19.50;47.50;101317.28;4901734;29;45363;-96
2023/07/07 06:15:02;;;;;;;;;6.00;6.00;;;;;19.62;47.53;101334.13;4901913;29;45463;-96
2023/07/07 06:17:28;;;;;;;;;4.00;2.33;;;;;19.59;47.27;101320.28;4902484;29;45430;-96
2023/07/07 06:19:54;;;;;;;;;6.00;5.00;;;;;19.71;47.30;101339.75;4902236;29;47355;-95
2023/07/07 06:22:19;;;;;;;;;4.00;4.00;;;;;19.71;47.37;101315.97;4918143;28;45983;-95
2023/07/07 06:24:45;;;;;;;;;5.00;5.00;;;;;19.79;47.33;101328.69;4888264;29;45240;-95
2023/07/07 06:27:10;;;;;;;;;6.33;6.00;;;;;19.86;47.54;101328.19;4882581;29;45543;-96
2023/07/07 06:29:35;;;;;;;;;8.67;6.00;;;;;19.88;47.42;101328.09;4882378;29;47032;-96
2023/07/07 06:32:01;;;;;;;;;6.00;5.00;;;;;20.00;47.19;101343.13;4882811;29;45373;-96
2023/07/07 06:34:27;;;;;;;;;6.67;5.67;;;;;20.03;47.06;101335.03;4868987;29;45630;-95
2023/07/07 06:36:53;;;;;;;;;7.00;5.00;;;;;20.05;47.29;101334.06;4869851;29;45700;-96
2023/07/07 06:39:18;;;;;;;;;6.00;5.67;;;;;20.13;47.32;101335.25;4898170;29;47117;-96
2023/07/07 06:41:44;;;;;;;;;6.00;5.00;;;;;20.23;47.00;101342.56;4908867;29;45032;-96
2023/07/07 06:44:09;;;;;;;;;7.00;7.00;;;;;20.24;46.95;101333.69;4902764;29;45395;-96
2023/07/07 06:46:35;;;;;;;;;5.75;5.75;;;;;20.29;47.10;101332.41;4901636;29;45336;-96
2023/07/07 06:49:02;;;;;;;;;6.50;6.50;;;;;20.34;46.97;101332.09;4901490;29;47212;-96
2023/07/07 06:51:28;;;;;;;;;7.67;6.00;;;;;20.43;46.56;101333.28;4901404;29;45474;-96
2023/07/07 06:53:54;;;;;;;;;7.00;5.67;;;;;20.60;46.84;101340.03;4900693;29;45423;-96
2023/07/07 06:56:19;;;;;;;;;4.67;4.67;;;;;20.66;46.44;101338.78;4901262;29;45403;-95
2023/07/07 06:58:45;;;;;;;;;6.33;4.00;;;;;20.76;46.81;101338.97;4901404;29;48410;-96
2023/07/07 07:01:13;;;;;;;;;8.00;7.00;;;;;20.88;46.70;101340.78;4901555;29;44776;-96
2023/07/07 07:03:40;;;;;;;;;5.00;5.00;;;;;20.99;46.61;101341.81;4902078;29;45358;-96
2023/07/07 07:06:06;;;;;;;;;4.67;4.67;;;;;21.12;46.67;101336.50;4902011;29;45587;-96
2023/07/07 07:08:32;;;;;;;;;8.00;6.33;;;;;21.23;46.55;101344.53;4900839;29;47424;-95
2023/07/07 07:10:57;;;;;;;;;8.00;5.33;;;;;21.34;45.93;101344.59;4901964;29;44729;-96
2023/07/07 07:13:23;;;;;;;;;6.00;6.00;;;;;21.47;46.04;101354.28;4903905;29;44766;-96
2023/07/07 07:15:49;;;;;;;;;5.00;5.00;;;;;21.47;45.20;101352.50;4922438;28;45340;-96
2023/07/07 07:18:15;;;;;;;;;5.00;5.00;;;;;21.53;45.09;101350.34;4910316;29;47091;-96
2023/07/07 07:20:40;;;;;;;;;7.00;6.00;;;;;21.55;44.86;101344.00;4909984;29;45409;-96
2023/07/07 07:23:06;;;;;;;;;5.00;5.00;;;;;21.65;45.41;101351.28;4903232;29;45320;-96
2023/07/07 07:25:31;;;;;;;;;7.33;5.00;;;;;21.65;45.51;101340.69;4902040;29;45316;-96
2023/07/07 07:27:57;;;;;;;;;6.00;4.50;;;;;21.70;44.80;101347.34;4902640;29;47160;-96
2023/07/07 07:30:22;;;;;;;;;5.25;5.25;;;;;21.84;45.38;101364.84;4901254;29;45353;-96
2023/07/07 07:32:48;;;;;;;;;9.50;6.00;;;;;21.91;44.97;101356.44;4901831;29;45324;-96
2023/07/07 07:35:14;;;;;;;;;7.50;5.75;;;;;21.94;44.64;101343.81;4907077;29;44833;-96
2023/07/07 07:37:40;;;;;;;;;7.25;7.00;;;;;22.11;44.54;101357.59;4902642;29;46943;-96
2023/07/07 07:40:06;;;;;;;;;6.00;5.67;;;;;22.13;44.75;101348.56;4920577;28;45144;-96
2023/07/07 07:42:32;;;;;;;;;8.75;6.00;;;;;22.22;44.62;101343.53;4904322;29;45426;-96
2023/07/07 07:44:58;;;;;;;;;5.33;5.33;;;;;22.36;45.00;101348.63;4905843;29;45558;-96
2023/07/07 07:47:23;;;;;;;;;7.33;6.00;;;;;22.43;44.39;101341.91;4905409;29;48421;-96
2023/07/07 07:49:48;;;;;;;;;5.67;5.67;;;;;22.50;44.51;101339.59;4907737;29;45446;-96
2023/07/07 07:52:14;;;;;;;;;5.33;5.33;;;;;22.60;44.49;101349.53;4901964;29;45402;-96
2023/07/07 07:54:40;;;;;;;;;6.33;5.33;;;;;22.71;43.99;101354.03;4896584;29;44907;-96
2023/07/07 07:57:09;;;;;;;;;6.00;5.67;;;;;22.76;43.70;101341.22;4892510;29;47013;-96
2023/07/07 07:59:34;;;;;;;;;3.67;3.67;;;;;22.93;43.92;101355.81;4895116;29;44904;-96
2023/07/07 08:01:59;;;;;;;;;5.33;4.33;;;;;22.97;43.52;101344.00;4889347;29;45400;-96
2023/07/07 08:04:29;;;;;;;;;5.33;5.33;;;;;23.05;43.35;101351.34;4894407;29;45354;-96
2023/07/07 08:06:54;;;;;;;;;4.67;4.33;;;;;23.14;43.41;101360.38;4893431;29;47309;-96
2023/07/07 08:09:20;;;;;;;;;4.00;3.67;;;;;23.24;43.13;101358.69;4904477;29;45236;-96
2023/07/07 08:11:45;;;;;;;;;6.33;4.67;;;;;23.40;42.95;101368.94;4906647;29;44818;-96
2023/07/07 08:14:17;;;;;;;;;4.67;4.67;;;;;23.43;43.69;101360.72;4908474;29;45288;-96
2023/07/07 08:17:14;;;;;;;;;5.67;5.67;;;;;23.54;43.14;101365.16;4906640;29;46944;-96
2023/07/07 08:19:42;;;;;;;;;5.67;5.67;;;;;23.60;42.69;101361.13;4910452;29;44695;-96
2023/07/07 08:22:16;;;;;;;;;6.67;6.00;;;;;23.70;42.62;101371.88;4908801;29;45381;-96
2023/07/07 08:24:49;;;;;;;;;6.33;5.67;;;;;23.74;42.93;101360.00;4909336;29;44828;-96
2023/07/07 08:27:17;;;;;;;;;7.00;6.67;;;;;23.84;43.03;101362.75;4907223;29;47310;-96
2023/07/07 08:29:43;;;;;;;;;7.00;6.00;;;;;23.94;42.79;101362.84;4924375;28;45283;-96
2023/07/07 08:32:13;;;;;;;;;5.33;5.33;;;;;24.08;42.57;101356.38;4910350;29;44825;-96
2023/07/07 08:34:40;;;;;;;;;6.67;6.67;;;;;24.16;42.12;101356.56;4913369;29;45033;-96
2023/07/07 08:37:06;;;;;;;;;5.00;5.00;;;;;24.23;42.32;101352.44;4900273;29;47779;-95
2023/07/07 08:39:33;;;;;;;;;5.00;3.33;;;;;24.32;42.26;101361.44;4913642;29;44965;-96
2023/07/07 08:42:58;;;;;;;;;6.67;5.00;;;;;24.35;42.08;101350.53;4897673;29;45233;-96
2023/07/07 08:45:23;;;;;;;;;6.00;6.00;;;;;24.44;42.11;101354.22;4792684;29;44883;-96
2023/07/07 08:48:11;;;;;;;;;10.00;7.00;;;;;24.57;42.05;101355.84;4853157;29;47215;-96
2023/07/07 08:50:58;;;;;;;;;9.00;6.67;;;;;24.64;42.22;101352.53;4852051;29;46165;-96
2023/07/07 08:53:34;;;;;;;;;9.00;7.67;;;;;24.75;42.03;101356.03;4853506;29;45428;-96
2023/07/07 08:56:19;;;;;;;;;8.00;5.67;;;;;24.79;41.97;101352.16;4854999;29;44871;-96
2023/07/07 08:58:52;;;;;;;;;8.00;7.33;;;;;24.94;42.06;101361.50;4853204;29;47075;-96
2023/07/07 09:01:35;;;;;;;;;8.33;7.67;;;;;25.02;42.05;101354.63;4849959;29;44939;-96
2023/07/07 09:04:29;;;;;;;;;7.00;6.33;;;;;25.19;42.03;101353.97;4860910;29;44898;-96
2023/07/07 09:07:13;;;;;;;;;8.33;5.00;;;;;25.25;41.99;101341.94;4871670;29;45423;-96
2023/07/07 09:10:10;;;;;;;;;7.33;5.33;;;;;25.38;41.69;101339.03;4869658;29;48267;-96
2023/07/07 09:12:58;;;;;;;;;7.00;6.00;;;;;25.51;41.95;101344.09;4874291;29;44827;-96
2023/07/07 09:15:29;;;;;;;;;8.00;7.67;;;;;25.70;41.33;101355.75;4862538;29;45413;-96
2023/07/07 09:18:19;;;;;;;;;8.00;8.00;;;;;25.78;41.12;101347.06;4925429;28;45373;-96
2023/07/07 09:20:53;;;;;;;;;9.00;7.33;;;;;25.84;40.84;101336.69;4906793;29;47613;-96
2023/07/07 09:23:22;;;;;;;;;10.67;9.00;;;;;25.99;40.92;101347.75;4903246;29;45495;-96
2023/07/07 09:25:57;;;;;;;;;8.00;7.33;;;;;26.10;40.60;101343.25;4904026;29;45352;-96
2023/07/07 09:28:29;;;;;;;;;7.33;7.33;;;;;26.22;40.96;101343.91;4903098;29;45404;-96
2023/07/07 09:31:25;;;;;;;;;8.33;7.33;;;;;26.32;40.21;101334.09;4902957;29;47288;-96
2023/07/07 09:33:52;;;;;;;;;7.33;7.33;;;;;26.44;39.51;101329.44;4889155;29;45309;-96
2023/07/07 09:36:40;;;;;;;;;9.00;8.67;;;;;26.60;39.46;101334.16;4884894;29;44752;-96
2023/07/07 09:39:38;;;;;;;;;7.00;7.00;;;;;26.74;39.77;101334.66;4848026;29;44901;-96
2023/07/07 09:42:28;;;;;;;;;8.67;7.00;;;;;26.86;39.66;101329.94;4880795;29;47533;-96
2023/07/07 09:45:31;;;;;;;;;8.00;6.33;;;;;26.97;39.98;101327.09;4883599;29;45310;-96
2023/07/07 09:48:14;;;;;;;;;7.33;7.33;;;;;27.11;39.75;101324.94;4891738;28;45281;-96
2023/07/07 09:51:19;;;;;;;;;7.33;7.33;;;;;27.23;39.43;101323.72;4905362;29;44855;-96
2023/07/07 09:53:57;;;;;;;;;7.00;7.00;;;;;27.40;39.26;101331.91;4879614;28;45344;-96
2023/07/07 09:56:31;;;;;;;;;8.00;6.67;;;;;27.43;38.81;101321.75;4913613;29;45450;-96
2023/07/07 09:59:13;;;;;;;;;7.33;6.00;;;;;27.59;38.90;101331.75;4908422;29;44672;-96
2023/07/07 10:01:44;;;;;;;;;7.00;6.00;;;;;27.70;38.54;101336.06;4905413;29;45624;-96
2023/07/07 10:04:14;;;;;;;;;8.00;7.00;;;;;27.73;38.43;101325.03;4907457;29;47587;-96
2023/07/07 10:06:56;;;;;;;;;6.33;6.33;;;;;27.83;38.39;101332.97;4907642;29;45452;-96
2023/07/07 10:09:22;;;;;;;;;6.33;6.00;;;;;27.88;38.00;101321.81;4907822;29;45486;-96
2023/07/07 10:11:50;;;;;;;;;5.00;5.00;;;;;27.94;37.37;101328.34;4910172;29;45633;-96
2023/07/07 10:14:17;;;;;;;;;7.67;7.67;;;;;28.02;37.77;101328.44;4908043;29;46803;-96
2023/07/07 10:17:00;;;;;;;;;7.00;7.00;;;;;28.01;37.69;101318.72;4904359;29;45460;-96
2023/07/07 10:19:26;;;;;;;;;4.00;4.00;;;;;28.06;37.80;101324.44;4903003;29;44853;-96
2023/07/07 10:21:52;;;;;;;;;7.00;7.00;;;;;28.14;37.33;101337.06;4887095;29;44847;-96
2023/07/07 10:24:18;;;;;;;;;6.00;5.00;;;;;28.14;37.49;101318.31;4870313;29;47763;-96
2023/07/07 10:26:47;;;;;;;;;7.33;7.00;;;;;28.19;37.14;101315.97;4888414;29;44910;-96
2023/07/07 10:29:22;;;;;;;;;6.33;6.33;;;;;28.25;37.21;101320.75;4886778;29;45659;-96
2023/07/07 10:31:49;;;;;;;;;6.67;6.67;;;;;28.28;37.02;101320.44;4887137;29;45469;-96
2023/07/07 10:34:40;;;;;;;;;7.00;6.33;;;;;28.34;36.76;101316.28;4889804;29;45450;-96
2023/07/07 10:37:18;;;;;;;;;8.33;7.00;;;;;28.43;37.01;101319.00;4912569;29;44815;-96
2023/07/07 10:40:04;;;;;;;;;7.67;7.67;;;;;28.46;36.67;101319.50;4906858;29;45343;-96
2023/07/07 10:42:31;;;;;;;;;6.67;6.67;;;;;28.43;37.09;101313.66;4902465;29;45922;-96
2023/07/07 10:44:59;;;;;;;;;2.67;2.67;;;;;28.47;36.01;101318.50;4908508;29;48682;-96
2023/07/07 10:47:45;;;;;;;;;7.00;7.00;;;;;28.53;36.34;101317.03;4910114;29;44803;-96
2023/07/07 10:50:16;;;;;;;;;7.67;7.67;;;;;28.65;36.26;101313.06;4892503;29;44879;-96
2023/07/07 10:53:05;;;;;;;;;8.67;7.00;;;;;28.85;35.96;101318.19;4885970;29;45347;-96
2023/07/07 10:55:57;;;;;;;;;7.00;7.00;;;;;29.04;36.04;101313.56;4902918;29;45511;-96
2023/07/07 10:58:55;;;;;;;;;8.00;7.00;;;;;29.30;36.35;101304.56;4885684;29;45718;-96
2023/07/07 11:01:54;;;;;;;;;11.00;9.00;;;;;29.60;35.96;101310.31;4887682;29;44772;-96
2023/07/07 11:04:42;;;;;;;;;6.33;5.67;;;;;29.90;35.49;101299.91;4902184;29;45400;-96
2023/07/07 11:07:29;;;;;;;;;9.33;6.33;;;;;30.22;35.12;101311.59;4906126;29;47668;-96
2023/07/07 11:10:14;;;;;;;;;2.00;1.00;;;;;30.53;34.65;101297.41;4908775;29;45459;-96
2023/07/07 11:12:48;;;;;;;;;6.00;6.00;;;;;30.84;34.21;101297.59;4912939;29;44789;-96
2023/07/07 11:15:40;;;;;;;;;7.33;7.00;;;;;31.15;34.05;101288.69;4912906;29;45623;-96
2023/07/07 11:18:25;;;;;;;;;6.67;6.00;;;;;31.42;33.31;101298.06;4910649;29;47319;-96
2023/07/07 11:21:03;;;;;;;;;4.33;4.00;;;;;31.65;32.54;101286.44;4908634;29;44968;-96
2023/07/07 11:24:05;;;;;;;;;5.00;5.00;;;;;31.90;31.76;101282.72;4913251;29;44765;-96
2023/07/07 11:27:08;;;;;;;;;5.33;5.00;;;;;32.13;31.48;101278.06;4896456;29;45229;-96
2023/07/07 11:30:01;;;;;;;;;5.33;5.00;;;;;32.34;31.12;101275.69;4909511;29;45769;-96
2023/07/07 11:32:40;;;;;;;;;5.33;5.33;;;;;32.51;30.76;101277.16;4913313;29;45474;-96
2023/07/07 11:35:46;;;;;;;;;7.00;7.00;;;;;32.62;30.40;101280.41;4912808;29;45393;-96
2023/07/07 11:38:43;;;;;;;;;7.00;7.00;;;;;32.56;29.88;101265.81;4911856;29;44927;-96
2023/07/07 11:41:51;;;;;;;;;7.00;6.00;;;;;32.47;29.84;101262.41;4914465;29;45534;-96
2023/07/07 11:44:43;;;;;;;;;5.00;5.00;;;;;32.55;30.16;101266.84;4912384;29;45434;-96